sensor_id;sensor_type;location;lat;lon;timestamp;temperature;humidity
67777;DHT22;54576;52.020;5.536;2022-08-18T00:01:08;19.20;86.10
67777;DHT22;54576;52.020;5.536;2022-08-18T00:03:34;19.20;86.10
67777;DHT22;54576;52.020;5.536;2022-08-18T00:05:59;19.20;86.60
67777;DHT22;54576;52.020;5.536;2022-08-18T00:08:25;19.10;85.60
67777;DHT22;54576;52.020;5.536;2022-08-18T00:10:54;19.10;85.60
67777;DHT22;54576;52.020;5.536;2022-08-18T00:13:19;19.00;85.60
67777;DHT22;54576;52.020;5.536;2022-08-18T00:15:45;19.00;85.90
67777;DHT22;54576;52.020;5.536;2022-08-18T00:18:10;19.00;86.10
67777;DHT22;54576;52.020;5.536;2022-08-18T00:20:36;18.90;86.10
67777;DHT22;54576;52.020;5.536;2022-08-18T00:23:02;18.90;86.20
67777;DHT22;54576;52.020;5.536;2022-08-18T00:25:27;18.90;86.30
67777;DHT22;54576;52.020;5.536;2022-08-18T00:27:53;18.80;86.30
67777;DHT22;54576;52.020;5.536;2022-08-18T00:30:20;18.90;86.50
67777;DHT22;54576;52.020;5.536;2022-08-18T00:32:49;18.80;86.40
67777;DHT22;54576;52.020;5.536;2022-08-18T00:35:21;18.80;86.40
67777;DHT22;54576;52.020;5.536;2022-08-18T00:37:50;18.80;86.50
67777;DHT22;54576;52.020;5.536;2022-08-18T00:40:19;18.80;86.40
67777;DHT22;54576;52.020;5.536;2022-08-18T00:42:49;18.80;86.30
67777;DHT22;54576;52.020;5.536;2022-08-18T00:45:24;18.80;86.40
67777;DHT22;54576;52.020;5.536;2022-08-18T00:47:51;18.80;86.50
67777;DHT22;54576;52.020;5.536;2022-08-18T00:50:28;18.70;86.50
67777;DHT22;54576;52.020;5.536;2022-08-18T00:53:04;18.70;86.50
67777;DHT22;54576;52.020;5.536;2022-08-18T00:55:31;18.70;86.70
67777;DHT22;54576;52.020;5.536;2022-08-18T00:58:09;18.60;86.80
67777;DHT22;54576;52.020;5.536;2022-08-18T01:00:36;18.60;86.80
67777;DHT22;54576;52.020;5.536;2022-08-18T01:03:09;18.60;86.80
67777;DHT22;54576;52.020;5.536;2022-08-18T01:05:48;18.60;86.90
67777;DHT22;54576;52.020;5.536;2022-08-18T01:08:15;18.60;86.90
67777;DHT22;54576;52.020;5.536;2022-08-18T01:10:42;18.60;87.10
67777;DHT22;54576;52.020;5.536;2022-08-18T01:13:08;18.60;87.20
67777;DHT22;54576;52.020;5.536;2022-08-18T01:15:35;18.60;87.20
67777;DHT22;54576;52.020;5.536;2022-08-18T01:18:08;18.60;87.20
67777;DHT22;54576;52.020;5.536;2022-08-18T01:21:13;18.60;87.20
67777;DHT22;54576;52.020;5.536;2022-08-18T01:24:00;18.60;86.90
67777;DHT22;54576;52.020;5.536;2022-08-18T01:26:27;18.70;87.10
67777;DHT22;54576;52.020;5.536;2022-08-18T01:28:54;18.70;87.00
67777;DHT22;54576;52.020;5.536;2022-08-18T01:31:35;18.70;87.10
67777;DHT22;54576;52.020;5.536;2022-08-18T01:34:04;18.80;87.00
67777;DHT22;54576;52.020;5.536;2022-08-18T01:36:31;18.80;87.00
67777;DHT22;54576;52.020;5.536;2022-08-18T01:38:59;18.80;86.90
67777;DHT22;54576;52.020;5.536;2022-08-18T01:41:25;18.80;87.70
67777;DHT22;54576;52.020;5.536;2022-08-18T01:43:50;18.80;86.90
67777;DHT22;54576;52.020;5.536;2022-08-18T01:46:20;18.80;86.80
67777;DHT22;54576;52.020;5.536;2022-08-18T01:48:46;18.80;86.80
67777;DHT22;54576;52.020;5.536;2022-08-18T01:51:13;18.80;86.90
67777;DHT22;54576;52.020;5.536;2022-08-18T01:53:39;18.80;86.90
67777;DHT22;54576;52.020;5.536;2022-08-18T01:56:05;18.80;86.90
67777;DHT22;54576;52.020;5.536;2022-08-18T01:58:33;18.80;87.10
67777;DHT22;54576;52.020;5.536;2022-08-18T02:01:00;18.80;87.00
67777;DHT22;54576;52.020;5.536;2022-08-18T02:03:32;18.80;87.00
67777;DHT22;54576;52.020;5.536;2022-08-18T02:06:00;18.80;87.00
67777;DHT22;54576;52.020;5.536;2022-08-18T02:08:27;18.80;87.10
67777;DHT22;54576;52.020;5.536;2022-08-18T02:10:53;18.90;87.10
67777;DHT22;54576;52.020;5.536;2022-08-18T02:13:18;18.80;87.00
67777;DHT22;54576;52.020;5.536;2022-08-18T02:15:45;18.90;87.00
67777;DHT22;54576;52.020;5.536;2022-08-18T02:18:21;18.90;87.10
67777;DHT22;54576;52.020;5.536;2022-08-18T02:20:47;18.90;87.00
67777;DHT22;54576;52.020;5.536;2022-08-18T02:23:13;18.90;87.00
67777;DHT22;54576;52.020;5.536;2022-08-18T02:25:41;18.90;87.00
67777;DHT22;54576;52.020;5.536;2022-08-18T02:28:07;18.90;87.00
67777;DHT22;54576;52.020;5.536;2022-08-18T02:30:33;18.90;87.10
67777;DHT22;54576;52.020;5.536;2022-08-18T02:33:02;18.90;87.10
67777;DHT22;54576;52.020;5.536;2022-08-18T02:35:28;18.80;87.00
67777;DHT22;54576;52.020;5.536;2022-08-18T02:37:53;18.90;86.90
67777;DHT22;54576;52.020;5.536;2022-08-18T02:40:19;18.90;87.00
67777;DHT22;54576;52.020;5.536;2022-08-18T02:42:45;18.90;86.90
67777;DHT22;54576;52.020;5.536;2022-08-18T02:45:12;18.90;86.90
67777;DHT22;54576;52.020;5.536;2022-08-18T02:47:38;18.90;87.10
67777;DHT22;54576;52.020;5.536;2022-08-18T02:50:05;18.90;87.10
67777;DHT22;54576;52.020;5.536;2022-08-18T02:52:31;18.90;87.10
67777;DHT22;54576;52.020;5.536;2022-08-18T02:55:00;18.90;87.10
67777;DHT22;54576;52.020;5.536;2022-08-18T02:57:26;18.80;87.10
67777;DHT22;54576;52.020;5.536;2022-08-18T02:59:52;18.80;87.20
67777;DHT22;54576;52.020;5.536;2022-08-18T03:02:18;18.80;87.20
67777;DHT22;54576;52.020;5.536;2022-08-18T03:04:45;18.80;87.30
67777;DHT22;54576;52.020;5.536;2022-08-18T03:07:11;18.80;87.30
67777;DHT22;54576;52.020;5.536;2022-08-18T03:09:37;18.80;87.30
67777;DHT22;54576;52.020;5.536;2022-08-18T03:12:04;18.80;87.30
67777;DHT22;54576;52.020;5.536;2022-08-18T03:14:31;18.80;87.40
67777;DHT22;54576;52.020;5.536;2022-08-18T03:16:57;18.80;87.20
67777;DHT22;54576;52.020;5.536;2022-08-18T03:19:25;18.80;87.20
67777;DHT22;54576;52.020;5.536;2022-08-18T03:21:52;18.70;87.20
67777;DHT22;54576;52.020;5.536;2022-08-18T03:24:20;18.70;87.20
67777;DHT22;54576;52.020;5.536;2022-08-18T03:26:46;18.70;87.10
67777;DHT22;54576;52.020;5.536;2022-08-18T03:29:12;18.60;87.10
67777;DHT22;54576;52.020;5.536;2022-08-18T03:31:38;18.60;87.20
67777;DHT22;54576;52.020;5.536;2022-08-18T03:34:06;18.60;87.20
67777;DHT22;54576;52.020;5.536;2022-08-18T03:36:33;18.60;87.10
67777;DHT22;54576;52.020;5.536;2022-08-18T03:39:06;18.60;87.20
67777;DHT22;54576;52.020;5.536;2022-08-18T03:41:32;18.60;87.10
67777;DHT22;54576;52.020;5.536;2022-08-18T03:44:00;18.50;87.20
67777;DHT22;54576;52.020;5.536;2022-08-18T03:46:25;18.50;87.30
67777;DHT22;54576;52.020;5.536;2022-08-18T03:48:51;18.50;87.10
67777;DHT22;54576;52.020;5.536;2022-08-18T03:51:21;18.50;87.10
67777;DHT22;54576;52.020;5.536;2022-08-18T03:53:49;18.40;86.90
67777;DHT22;54576;52.020;5.536;2022-08-18T03:56:18;18.40;86.80
67777;DHT22;54576;52.020;5.536;2022-08-18T03:58:56;18.30;86.90
67777;DHT22;54576;52.020;5.536;2022-08-18T04:01:25;18.30;87.00
67777;DHT22;54576;52.020;5.536;2022-08-18T04:03:53;18.20;87.00
67777;DHT22;54576;52.020;5.536;2022-08-18T04:06:23;18.20;87.30
67777;DHT22;54576;52.020;5.536;2022-08-18T04:08:53;18.20;87.10
67777;DHT22;54576;52.020;5.536;2022-08-18T04:11:19;18.20;87.00
67777;DHT22;54576;52.020;5.536;2022-08-18T04:13:45;18.20;87.00
67777;DHT22;54576;52.020;5.536;2022-08-18T04:16:11;18.20;87.10
67777;DHT22;54576;52.020;5.536;2022-08-18T04:18:36;18.10;87.20
67777;DHT22;54576;52.020;5.536;2022-08-18T04:21:08;18.10;87.20
67777;DHT22;54576;52.020;5.536;2022-08-18T04:23:38;18.10;87.20
67777;DHT22;54576;52.020;5.536;2022-08-18T04:26:06;18.10;87.20
67777;DHT22;54576;52.020;5.536;2022-08-18T04:28:32;18.10;87.30
67777;DHT22;54576;52.020;5.536;2022-08-18T04:30:58;18.10;87.50
67777;DHT22;54576;52.020;5.536;2022-08-18T04:33:27;18.10;87.50
67777;DHT22;54576;52.020;5.536;2022-08-18T04:35:54;18.10;87.50
67777;DHT22;54576;52.020;5.536;2022-08-18T04:38:20;18.10;87.50
67777;DHT22;54576;52.020;5.536;2022-08-18T04:40:47;18.10;87.50
67777;DHT22;54576;52.020;5.536;2022-08-18T04:43:13;18.10;87.50
67777;DHT22;54576;52.020;5.536;2022-08-18T04:45:46;18.10;87.60
67777;DHT22;54576;52.020;5.536;2022-08-18T04:48:12;18.10;87.60
67777;DHT22;54576;52.020;5.536;2022-08-18T04:50:40;18.20;87.50
67777;DHT22;54576;52.020;5.536;2022-08-18T04:53:06;18.20;87.40
67777;DHT22;54576;52.020;5.536;2022-08-18T04:55:52;18.20;87.80
67777;DHT22;54576;52.020;5.536;2022-08-18T04:58:22;18.20;87.70
67777;DHT22;54576;52.020;5.536;2022-08-18T05:00:56;18.20;87.50
67777;DHT22;54576;52.020;5.536;2022-08-18T05:03:22;18.20;87.50
67777;DHT22;54576;52.020;5.536;2022-08-18T05:05:56;18.30;88.60
67777;DHT22;54576;52.020;5.536;2022-08-18T05:08:25;18.30;87.50
67777;DHT22;54576;52.020;5.536;2022-08-18T05:10:55;18.30;87.50
67777;DHT22;54576;52.020;5.536;2022-08-18T05:13:22;18.30;87.50
67777;DHT22;54576;52.020;5.536;2022-08-18T05:15:58;18.40;87.40
67777;DHT22;54576;52.020;5.536;2022-08-18T05:18:29;18.50;87.70
67777;DHT22;54576;52.020;5.536;2022-08-18T05:20:55;18.70;87.10
67777;DHT22;54576;52.020;5.536;2022-08-18T05:23:22;19.00;86.30
67777;DHT22;54576;52.020;5.536;2022-08-18T05:25:48;19.20;85.70
67777;DHT22;54576;52.020;5.536;2022-08-18T05:28:14;19.40;85.20
67777;DHT22;54576;52.020;5.536;2022-08-18T05:30:41;19.70;84.80
67777;DHT22;54576;52.020;5.536;2022-08-18T05:33:07;20.10;84.10
67777;DHT22;54576;52.020;5.536;2022-08-18T05:35:42;20.30;84.50
67777;DHT22;54576;52.020;5.536;2022-08-18T05:38:32;20.40;83.50
67777;DHT22;54576;52.020;5.536;2022-08-18T05:41:08;20.50;84.00
67777;DHT22;54576;52.020;5.536;2022-08-18T05:43:36;20.60;83.50
67777;DHT22;54576;52.020;5.536;2022-08-18T05:46:04;20.80;83.20
67777;DHT22;54576;52.020;5.536;2022-08-18T05:48:31;20.90;82.70
67777;DHT22;54576;52.020;5.536;2022-08-18T05:50:57;20.90;82.80
67777;DHT22;54576;52.020;5.536;2022-08-18T05:53:24;20.80;82.90
67777;DHT22;54576;52.020;5.536;2022-08-18T05:56:11;20.70;83.30
67777;DHT22;54576;52.020;5.536;2022-08-18T05:58:57;20.50;84.00
67777;DHT22;54576;52.020;5.536;2022-08-18T06:01:37;20.50;84.20
67777;DHT22;54576;52.020;5.536;2022-08-18T06:04:33;20.80;84.30
67777;DHT22;54576;52.020;5.536;2022-08-18T06:07:05;21.20;83.70
67777;DHT22;54576;52.020;5.536;2022-08-18T06:09:47;21.40;83.10
67777;DHT22;54576;52.020;5.536;2022-08-18T06:18:11;21.80;82.00
67777;DHT22;54576;52.020;5.536;2022-08-18T06:26:46;22.30;82.30
67777;DHT22;54576;52.020;5.536;2022-08-18T06:29:37;22.60;82.20
67777;DHT22;54576;52.020;5.536;2022-08-18T06:35:08;22.90;81.80
67777;DHT22;54576;52.020;5.536;2022-08-18T06:37:49;23.10;81.90
67777;DHT22;54576;52.020;5.536;2022-08-18T06:40:39;23.20;81.80
67777;DHT22;54576;52.020;5.536;2022-08-18T06:43:09;23.30;81.60
67777;DHT22;54576;52.020;5.536;2022-08-18T06:45:38;23.40;82.30
67777;DHT22;54576;52.020;5.536;2022-08-18T06:48:13;23.60;81.20
67777;DHT22;54576;52.020;5.536;2022-08-18T06:50:51;23.80;80.60
67777;DHT22;54576;52.020;5.536;2022-08-18T06:53:17;24.10;80.40
67777;DHT22;54576;52.020;5.536;2022-08-18T06:55:46;23.90;80.20
67777;DHT22;54576;52.020;5.536;2022-08-18T07:00:44;23.90;80.30
67777;DHT22;54576;52.020;5.536;2022-08-18T07:03:21;23.90;80.50
67777;DHT22;54576;52.020;5.536;2022-08-18T07:06:01;23.90;80.30
67777;DHT22;54576;52.020;5.536;2022-08-18T07:08:35;23.90;79.10
67777;DHT22;54576;52.020;5.536;2022-08-18T07:11:21;23.80;78.10
67777;DHT22;54576;52.020;5.536;2022-08-18T07:13:57;23.60;76.40
67777;DHT22;54576;52.020;5.536;2022-08-18T07:16:30;23.30;78.60
67777;DHT22;54576;52.020;5.536;2022-08-18T07:19:28;23.20;79.10
67777;DHT22;54576;52.020;5.536;2022-08-18T07:22:05;23.00;78.80
67777;DHT22;54576;52.020;5.536;2022-08-18T07:24:35;22.90;77.70
67777;DHT22;54576;52.020;5.536;2022-08-18T07:27:15;22.80;80.00
67777;DHT22;54576;52.020;5.536;2022-08-18T07:30:07;22.70;79.50
67777;DHT22;54576;52.020;5.536;2022-08-18T07:32:47;22.60;77.80
67777;DHT22;54576;52.020;5.536;2022-08-18T07:35:22;22.60;79.50
67777;DHT22;54576;52.020;5.536;2022-08-18T07:38:02;22.60;79.30
67777;DHT22;54576;52.020;5.536;2022-08-18T07:40:37;22.70;79.00
67777;DHT22;54576;52.020;5.536;2022-08-18T07:43:33;22.70;78.70
67777;DHT22;54576;52.020;5.536;2022-08-18T07:46:11;22.80;77.40
67777;DHT22;54576;52.020;5.536;2022-08-18T07:48:37;22.80;77.90
67777;DHT22;54576;52.020;5.536;2022-08-18T07:54:07;22.90;77.90
67777;DHT22;54576;52.020;5.536;2022-08-18T08:05:16;22.70;77.80
67777;DHT22;54576;52.020;5.536;2022-08-18T08:07:50;22.60;77.50
67777;DHT22;54576;52.020;5.536;2022-08-18T08:10:49;22.50;78.10
67777;DHT22;54576;52.020;5.536;2022-08-18T08:16:42;22.90;76.30
67777;DHT22;54576;52.020;5.536;2022-08-18T08:30:16;22.90;77.10
67777;DHT22;54576;52.020;5.536;2022-08-18T08:33:10;23.10;76.80
67777;DHT22;54576;52.020;5.536;2022-08-18T08:35:42;23.00;75.40
67777;DHT22;54576;52.020;5.536;2022-08-18T08:41:04;23.10;75.30
67777;DHT22;54576;52.020;5.536;2022-08-18T08:43:37;23.20;76.40
67777;DHT22;54576;52.020;5.536;2022-08-18T08:46:10;23.30;75.10
67777;DHT22;54576;52.020;5.536;2022-08-18T08:48:44;23.50;73.90
67777;DHT22;54576;52.020;5.536;2022-08-18T08:51:28;23.60;74.70
67777;DHT22;54576;52.020;5.536;2022-08-18T08:54:22;23.80;74.40
67777;DHT22;54576;52.020;5.536;2022-08-18T08:56:51;23.90;72.10
67777;DHT22;54576;52.020;5.536;2022-08-18T08:59:21;23.90;73.60
67777;DHT22;54576;52.020;5.536;2022-08-18T09:25:33;23.80;72.10
67777;DHT22;54576;52.020;5.536;2022-08-18T09:41:57;24.40;71.70
67777;DHT22;54576;52.020;5.536;2022-08-18T09:47:12;24.60;69.30
67777;DHT22;54576;52.020;5.536;2022-08-18T09:52:59;24.60;69.00
67777;DHT22;54576;52.020;5.536;2022-08-18T09:55:44;24.60;70.60
67777;DHT22;54576;52.020;5.536;2022-08-18T09:58:19;24.50;71.10
67777;DHT22;54576;52.020;5.536;2022-08-18T10:01:18;24.50;70.30
67777;DHT22;54576;52.020;5.536;2022-08-18T10:04:15;24.60;67.10
67777;DHT22;54576;52.020;5.536;2022-08-18T10:06:46;24.70;68.50
67777;DHT22;54576;52.020;5.536;2022-08-18T10:09:21;24.80;69.10
67777;DHT22;54576;52.020;5.536;2022-08-18T10:17:32;24.80;79.20
67777;DHT22;54576;52.020;5.536;2022-08-18T10:22:58;24.90;68.60
67777;DHT22;54576;52.020;5.536;2022-08-18T10:28:02;25.20;74.00
67777;DHT22;54576;52.020;5.536;2022-08-18T10:33:04;25.70;69.20
67777;DHT22;54576;52.020;5.536;2022-08-18T10:38:22;26.00;68.50
67777;DHT22;54576;52.020;5.536;2022-08-18T10:41:03;25.90;64.60
67777;DHT22;54576;52.020;5.536;2022-08-18T10:43:44;25.80;68.60
67777;DHT22;54576;52.020;5.536;2022-08-18T10:46:22;25.60;67.60
67777;DHT22;54576;52.020;5.536;2022-08-18T10:49:06;25.40;67.70
67777;DHT22;54576;52.020;5.536;2022-08-18T10:56:52;25.30;68.80
67777;DHT22;54576;52.020;5.536;2022-08-18T11:04:33;25.50;68.60
67777;DHT22;54576;52.020;5.536;2022-08-18T11:07:07;25.60;66.10
67777;DHT22;54576;52.020;5.536;2022-08-18T11:09:35;25.50;66.80
67777;DHT22;54576;52.020;5.536;2022-08-18T11:12:02;25.40;68.20
67777;DHT22;54576;52.020;5.536;2022-08-18T11:19:53;25.20;64.90
67777;DHT22;54576;52.020;5.536;2022-08-18T11:22:23;25.20;67.90
67777;DHT22;54576;52.020;5.536;2022-08-18T11:24:49;25.30;67.90
67777;DHT22;54576;52.020;5.536;2022-08-18T11:27:20;25.30;67.50
67777;DHT22;54576;52.020;5.536;2022-08-18T11:29:46;25.40;67.10
67777;DHT22;54576;52.020;5.536;2022-08-18T11:34:45;25.30;67.50
67777;DHT22;54576;52.020;5.536;2022-08-18T11:37:45;25.50;67.40
67777;DHT22;54576;52.020;5.536;2022-08-18T11:43:09;25.80;67.60
67777;DHT22;54576;52.020;5.536;2022-08-18T11:48:21;25.80;63.30
67777;DHT22;54576;52.020;5.536;2022-08-18T11:53:40;25.50;68.60
67777;DHT22;54576;52.020;5.536;2022-08-18T11:58:49;25.40;66.70
67777;DHT22;54576;52.020;5.536;2022-08-18T12:01:36;25.30;67.50
67777;DHT22;54576;52.020;5.536;2022-08-18T12:09:40;25.40;67.30
67777;DHT22;54576;52.020;5.536;2022-08-18T12:12:25;25.40;65.20
67777;DHT22;54576;52.020;5.536;2022-08-18T12:15:24;25.40;65.50
67777;DHT22;54576;52.020;5.536;2022-08-18T12:17:51;25.40;65.40
67777;DHT22;54576;52.020;5.536;2022-08-18T12:20:17;25.50;67.10
67777;DHT22;54576;52.020;5.536;2022-08-18T12:22:44;25.60;67.00
67777;DHT22;54576;52.020;5.536;2022-08-18T12:25:12;25.70;66.80
67777;DHT22;54576;52.020;5.536;2022-08-18T12:27:40;25.90;66.10
67777;DHT22;54576;52.020;5.536;2022-08-18T12:30:08;25.80;64.60
67777;DHT22;54576;52.020;5.536;2022-08-18T12:32:35;25.80;65.90
67777;DHT22;54576;52.020;5.536;2022-08-18T12:35:02;25.80;65.70
67777;DHT22;54576;52.020;5.536;2022-08-18T12:37:28;25.90;65.50
67777;DHT22;54576;52.020;5.536;2022-08-18T12:39:56;25.90;65.50
67777;DHT22;54576;52.020;5.536;2022-08-18T12:42:22;25.90;65.20
67777;DHT22;54576;52.020;5.536;2022-08-18T12:44:48;25.90;65.00
67777;DHT22;54576;52.020;5.536;2022-08-18T12:47:17;25.90;65.30
67777;DHT22;54576;52.020;5.536;2022-08-18T12:49:43;25.90;65.40
67777;DHT22;54576;52.020;5.536;2022-08-18T12:52:09;25.90;65.70
67777;DHT22;54576;52.020;5.536;2022-08-18T12:54:35;26.00;65.50
67777;DHT22;54576;52.020;5.536;2022-08-18T12:57:04;25.90;65.50
67777;DHT22;54576;52.020;5.536;2022-08-18T12:59:30;25.80;65.60
67777;DHT22;54576;52.020;5.536;2022-08-18T13:01:56;25.80;66.00
67777;DHT22;54576;52.020;5.536;2022-08-18T13:04:22;26.00;65.90
67777;DHT22;54576;52.020;5.536;2022-08-18T13:06:52;26.00;65.70
67777;DHT22;54576;52.020;5.536;2022-08-18T13:09:22;26.10;65.30
67777;DHT22;54576;52.020;5.536;2022-08-18T13:11:48;25.90;65.60
67777;DHT22;54576;52.020;5.536;2022-08-18T13:14:15;25.70;65.80
67777;DHT22;54576;52.020;5.536;2022-08-18T13:16:41;25.60;65.80
67777;DHT22;54576;52.020;5.536;2022-08-18T13:19:08;25.70;66.30
67777;DHT22;54576;52.020;5.536;2022-08-18T13:21:35;25.60;62.20
67777;DHT22;54576;52.020;5.536;2022-08-18T13:24:01;25.70;65.90
67777;DHT22;54576;52.020;5.536;2022-08-18T13:26:40;25.80;66.00
67777;DHT22;54576;52.020;5.536;2022-08-18T13:29:06;25.90;65.60
67777;DHT22;54576;52.020;5.536;2022-08-18T13:31:32;25.90;65.50
67777;DHT22;54576;52.020;5.536;2022-08-18T13:33:58;25.80;65.60
67777;DHT22;54576;52.020;5.536;2022-08-18T13:36:27;25.80;65.60
67777;DHT22;54576;52.020;5.536;2022-08-18T13:39:16;26.00;65.10
67777;DHT22;54576;52.020;5.536;2022-08-18T13:41:42;26.00;64.50
67777;DHT22;54576;52.020;5.536;2022-08-18T13:44:09;26.10;64.10
67777;DHT22;54576;52.020;5.536;2022-08-18T13:46:38;26.20;64.20
67777;DHT22;54576;52.020;5.536;2022-08-18T13:51:40;26.30;64.30
67777;DHT22;54576;52.020;5.536;2022-08-18T13:54:07;26.30;64.00
67777;DHT22;54576;52.020;5.536;2022-08-18T13:56:33;26.30;64.00
67777;DHT22;54576;52.020;5.536;2022-08-18T13:59:00;26.30;63.20
67777;DHT22;54576;52.020;5.536;2022-08-18T14:01:25;26.40;63.40
67777;DHT22;54576;52.020;5.536;2022-08-18T14:03:51;26.40;63.50
67777;DHT22;54576;52.020;5.536;2022-08-18T14:06:17;26.40;63.50
67777;DHT22;54576;52.020;5.536;2022-08-18T14:08:44;26.40;63.40
67777;DHT22;54576;52.020;5.536;2022-08-18T14:11:10;26.50;63.50
67777;DHT22;54576;52.020;5.536;2022-08-18T14:13:36;26.60;63.40
67777;DHT22;54576;52.020;5.536;2022-08-18T14:16:02;26.50;63.20
67777;DHT22;54576;52.020;5.536;2022-08-18T14:18:27;26.50;63.00
67777;DHT22;54576;52.020;5.536;2022-08-18T14:20:55;26.50;63.30
67777;DHT22;54576;52.020;5.536;2022-08-18T14:23:39;26.50;63.00
67777;DHT22;54576;52.020;5.536;2022-08-18T14:26:10;26.50;63.30
67777;DHT22;54576;52.020;5.536;2022-08-18T14:28:54;26.40;63.10
67777;DHT22;54576;52.020;5.536;2022-08-18T14:31:20;26.30;63.20
67777;DHT22;54576;52.020;5.536;2022-08-18T14:33:46;26.20;63.50
67777;DHT22;54576;52.020;5.536;2022-08-18T14:36:13;26.10;63.30
67777;DHT22;54576;52.020;5.536;2022-08-18T14:38:39;26.10;63.10
67777;DHT22;54576;52.020;5.536;2022-08-18T14:41:07;26.10;63.00
67777;DHT22;54576;52.020;5.536;2022-08-18T14:43:34;26.10;62.70
67777;DHT22;54576;52.020;5.536;2022-08-18T14:48:26;26.00;62.20
67777;DHT22;54576;52.020;5.536;2022-08-18T14:50:54;25.90;62.90
67777;DHT22;54576;52.020;5.536;2022-08-18T14:53:23;25.90;62.90
67777;DHT22;54576;52.020;5.536;2022-08-18T14:55:50;25.90;62.80
67777;DHT22;54576;52.020;5.536;2022-08-18T14:58:21;25.80;63.00
67777;DHT22;54576;52.020;5.536;2022-08-18T15:00:50;25.90;62.70
67777;DHT22;54576;52.020;5.536;2022-08-18T15:03:16;26.00;63.00
67777;DHT22;54576;52.020;5.536;2022-08-18T15:05:42;26.00;62.50
67777;DHT22;54576;52.020;5.536;2022-08-18T15:08:07;26.10;62.30
67777;DHT22;54576;52.020;5.536;2022-08-18T15:10:33;26.20;62.30
67777;DHT22;54576;52.020;5.536;2022-08-18T15:12:59;26.30;62.00
67777;DHT22;54576;52.020;5.536;2022-08-18T15:15:26;26.30;61.90
67777;DHT22;54576;52.020;5.536;2022-08-18T15:17:51;26.40;61.70
67777;DHT22;54576;52.020;5.536;2022-08-18T15:20:17;26.40;61.80
67777;DHT22;54576;52.020;5.536;2022-08-18T15:22:44;26.50;61.50
67777;DHT22;54576;52.020;5.536;2022-08-18T15:25:29;26.40;61.40
67777;DHT22;54576;52.020;5.536;2022-08-18T15:28:21;26.20;61.40
67777;DHT22;54576;52.020;5.536;2022-08-18T15:30:49;26.10;61.00
67777;DHT22;54576;52.020;5.536;2022-08-18T15:33:16;26.00;95.50
67777;DHT22;54576;52.020;5.536;2022-08-18T15:35:43;25.90;88.60
67777;DHT22;54576;52.020;5.536;2022-08-18T15:38:10;25.90;70.00
67777;DHT22;54576;52.020;5.536;2022-08-18T15:40:37;25.80;64.40
67777;DHT22;54576;52.020;5.536;2022-08-18T15:43:11;25.70;62.10
67777;DHT22;54576;52.020;5.536;2022-08-18T15:45:39;25.70;62.00
67777;DHT22;54576;52.020;5.536;2022-08-18T15:48:05;25.80;62.20
67777;DHT22;54576;52.020;5.536;2022-08-18T15:50:31;25.90;70.90
67777;DHT22;54576;52.020;5.536;2022-08-18T15:53:02;26.00;81.80
67777;DHT22;54576;52.020;5.536;2022-08-18T15:55:29;26.00;79.60
67777;DHT22;54576;52.020;5.536;2022-08-18T15:57:55;26.00;78.40
67777;DHT22;54576;52.020;5.536;2022-08-18T16:00:22;26.00;81.10
67777;DHT22;54576;52.020;5.536;2022-08-18T16:02:50;26.10;82.60
67777;DHT22;54576;52.020;5.536;2022-08-18T16:05:18;26.00;61.70
67777;DHT22;54576;52.020;5.536;2022-08-18T16:07:46;25.90;61.90
67777;DHT22;54576;52.020;5.536;2022-08-18T16:10:14;26.00;62.00
67777;DHT22;54576;52.020;5.536;2022-08-18T16:12:40;26.10;61.50
67777;DHT22;54576;52.020;5.536;2022-08-18T16:15:06;26.10;60.60
67777;DHT22;54576;52.020;5.536;2022-08-18T16:17:32;26.00;61.70
67777;DHT22;54576;52.020;5.536;2022-08-18T16:19:58;26.10;61.80
67777;DHT22;54576;52.020;5.536;2022-08-18T16:22:29;26.10;61.80
67777;DHT22;54576;52.020;5.536;2022-08-18T16:24:56;26.00;63.80
67777;DHT22;54576;52.020;5.536;2022-08-18T16:27:22;26.00;69.10
67777;DHT22;54576;52.020;5.536;2022-08-18T16:29:47;25.90;90.60
67777;DHT22;54576;52.020;5.536;2022-08-18T16:32:13;25.90;96.60
67777;DHT22;54576;52.020;5.536;2022-08-18T16:34:40;25.90;92.70
67777;DHT22;54576;52.020;5.536;2022-08-18T16:37:06;25.80;62.20
67777;DHT22;54576;52.020;5.536;2022-08-18T16:39:34;25.70;62.10
67777;DHT22;54576;52.020;5.536;2022-08-18T16:44:25;25.70;61.20
67777;DHT22;54576;52.020;5.536;2022-08-18T16:46:53;25.70;68.60
67777;DHT22;54576;52.020;5.536;2022-08-18T16:49:18;25.60;62.10
67777;DHT22;54576;52.020;5.536;2022-08-18T16:51:44;25.50;62.10
67777;DHT22;54576;52.020;5.536;2022-08-18T16:54:10;25.50;62.30
67777;DHT22;54576;52.020;5.536;2022-08-18T16:56:36;25.40;62.30
67777;DHT22;54576;52.020;5.536;2022-08-18T16:59:02;25.40;62.20
67777;DHT22;54576;52.020;5.536;2022-08-18T17:01:46;25.50;62.10
67777;DHT22;54576;52.020;5.536;2022-08-18T17:04:31;25.50;62.30
67777;DHT22;54576;52.020;5.536;2022-08-18T17:07:03;25.60;62.20
67777;DHT22;54576;52.020;5.536;2022-08-18T17:09:30;25.50;62.00
67777;DHT22;54576;52.020;5.536;2022-08-18T17:11:56;25.60;62.20
67777;DHT22;54576;52.020;5.536;2022-08-18T17:14:26;25.60;62.10
67777;DHT22;54576;52.020;5.536;2022-08-18T17:16:53;25.70;62.00
67777;DHT22;54576;52.020;5.536;2022-08-18T17:19:21;25.70;62.10
67777;DHT22;54576;52.020;5.536;2022-08-18T17:21:47;25.80;62.00
67777;DHT22;54576;52.020;5.536;2022-08-18T17:24:13;25.70;62.10
67777;DHT22;54576;52.020;5.536;2022-08-18T17:26:43;25.70;61.80
67777;DHT22;54576;52.020;5.536;2022-08-18T17:31:44;25.70;61.80
67777;DHT22;54576;52.020;5.536;2022-08-18T17:34:13;25.70;79.80
67777;DHT22;54576;52.020;5.536;2022-08-18T17:36:54;25.70;70.20
67777;DHT22;54576;52.020;5.536;2022-08-18T17:49:37;25.40;85.10
67777;DHT22;54576;52.020;5.536;2022-08-18T17:52:23;25.30;83.20
67777;DHT22;54576;52.020;5.536;2022-08-18T17:54:52;25.30;90.80
67777;DHT22;54576;52.020;5.536;2022-08-18T17:57:29;25.20;62.20
67777;DHT22;54576;52.020;5.536;2022-08-18T18:00:04;25.10;62.00
67777;DHT22;54576;52.020;5.536;2022-08-18T18:02:31;25.10;62.40
67777;DHT22;54576;52.020;5.536;2022-08-18T18:05:05;25.00;62.50
67777;DHT22;54576;52.020;5.536;2022-08-18T18:10:33;24.90;62.50
67777;DHT22;54576;52.020;5.536;2022-08-18T18:13:13;24.90;71.10
67777;DHT22;54576;52.020;5.536;2022-08-18T18:16:30;24.80;79.10
67777;DHT22;54576;52.020;5.536;2022-08-18T18:18:39;24.70;99.60
67777;DHT22;54576;52.020;5.536;2022-08-18T18:21:20;24.70;96.10
67777;DHT22;54576;52.020;5.536;2022-08-18T18:23:52;24.50;63.10
67777;DHT22;54576;52.020;5.536;2022-08-18T18:33:54;24.50;85.00
67777;DHT22;54576;52.020;5.536;2022-08-18T18:36:43;24.40;86.20
67777;DHT22;54576;52.020;5.536;2022-08-18T18:41:40;24.30;68.50
67777;DHT22;54576;52.020;5.536;2022-08-18T18:44:11;24.30;67.40
67777;DHT22;54576;52.020;5.536;2022-08-18T18:50:12;24.10;63.80